createdAt,value
2022-08-28T00:03:31.506Z,4186.7
2022-08-28T00:09:06.912Z,4185.8
2022-08-28T00:14:41.832Z,4186.7
2022-08-28T00:20:20.303Z,4185.8
2022-08-28T00:25:56.410Z,4185.2
2022-08-28T00:31:32.057Z,4185.3
2022-08-28T00:37:07.543Z,4184.1
2022-08-28T00:43:07.124Z,4181.3
2022-08-28T00:48:40.120Z,4183.8
2022-08-28T00:54:18.718Z,4182.8
2022-08-28T00:59:54.046Z,4183
2022-08-28T01:05:28.714Z,4181.8
2022-08-28T01:11:03.518Z,4183
2022-08-28T01:16:38.361Z,4180.6
2022-08-28T01:22:13.379Z,4181.5
2022-08-28T01:27:48.100Z,4181.8
2022-08-28T01:33:30.466Z,4180.8
2022-08-28T01:39:05.184Z,4179.3
2022-08-28T01:45:01.885Z,4177.6
2022-08-28T01:50:35.098Z,4180
2022-08-28T01:56:09.911Z,4178.3
2022-08-28T02:01:45.634Z,4179.8
2022-08-28T02:07:20.726Z,4179
2022-08-28T02:13:00.215Z,4179.1
2022-08-28T02:18:44.124Z,4177.3
2022-08-28T02:24:19.980Z,4180.6
2022-08-28T02:29:55.065Z,4175.8
2022-08-28T02:35:30.800Z,4180.3
2022-08-28T02:41:05.522Z,4176.6
2022-08-28T02:46:40.841Z,4175.3
2022-08-28T02:52:16.561Z,4176.9
2022-08-28T02:57:51.546Z,4175.3
2022-08-28T03:03:26.269Z,4174.8
2022-08-28T03:09:01.096Z,4174.8
2022-08-28T03:14:39.881Z,4175.6
2022-08-28T03:20:14.791Z,4174.4
2022-08-28T03:25:49.813Z,4173.9
2022-08-28T03:31:24.617Z,4175.4
2022-08-28T03:36:59.421Z,4172.9
2022-08-28T03:42:55.885Z,4171.9
2022-08-28T03:48:29.554Z,4176.9
2022-08-28T03:54:04.379Z,4172.3
2022-08-28T03:59:39.113Z,4173.3
2022-08-28T04:05:14.735Z,4175.1
2022-08-28T04:10:49.726Z,4172.8
2022-08-28T04:16:25.557Z,4173.1
2022-08-28T04:22:01.908Z,4173.1
2022-08-28T04:27:36.934Z,4172.8
2022-08-28T04:33:13.010Z,4173.3
2022-08-28T04:38:47.704Z,4170.4
2022-08-28T04:44:44.273Z,4168.4
2022-08-28T04:50:16.995Z,4169.9
2022-08-28T04:55:56.330Z,4171.1
2022-08-28T05:01:31.980Z,4169.1
2022-08-28T05:07:06.607Z,4169.9
2022-08-28T05:12:41.502Z,4170.9
2022-08-28T05:18:16.271Z,4169.2
2022-08-28T05:23:52.218Z,4171.8
2022-08-28T05:29:26.995Z,4170.9
2022-08-28T05:35:01.797Z,4167.6
2022-08-28T05:40:37.435Z,4169.6
2022-08-28T05:46:14.489Z,4168.9
2022-08-28T05:51:49.869Z,4168.6
2022-08-28T05:57:24.697Z,4172.9
2022-08-28T06:02:59.332Z,4173.8
2022-08-28T06:08:36.974Z,4174.3
2022-08-28T06:14:12.132Z,4175.6
2022-08-28T06:19:47.092Z,4180
2022-08-28T06:25:21.992Z,4179.1
2022-08-28T06:31:34.766Z,4178.1
2022-08-28T06:37:10.101Z,4176.4
2022-08-28T06:43:06.639Z,4173.3
2022-08-28T06:48:39.221Z,4178.1
2022-08-28T06:54:23.521Z,4182.1
2022-08-28T06:59:58.683Z,4192.7
2022-08-28T07:05:33.411Z,4189
2022-08-28T07:11:08.438Z,4193.9
2022-08-28T07:16:44.087Z,4192
2022-08-28T07:22:18.895Z,4188.3
2022-08-28T07:27:54.770Z,4190.2
2022-08-28T07:33:29.522Z,4189
2022-08-28T07:39:04.534Z,4191.4
2022-08-28T07:45:01.111Z,4198.9
2022-08-28T07:50:33.793Z,4197
2022-08-28T07:56:08.598Z,4195.9
2022-08-28T08:01:44.448Z,4200.4
2022-08-28T08:07:20.493Z,4206.1
2022-08-28T08:12:57.300Z,4212
2022-08-28T08:18:36.562Z,4214
2022-08-28T08:24:23.836Z,4218.5
2022-08-28T08:29:58.809Z,4214.3
2022-08-28T08:35:33.537Z,4208.9
2022-08-28T08:41:08.585Z,4208.8
2022-08-28T08:46:44.350Z,4213.5
2022-08-28T08:52:19.509Z,4212.1
2022-08-28T08:57:54.484Z,4214
2022-08-28T09:03:30.047Z,4221.8
2022-08-28T09:09:05.056Z,4221.8
2022-08-28T09:14:39.927Z,4228.5
2022-08-28T09:20:15.155Z,4233.9
2022-08-28T09:25:53.093Z,4221.7
2022-08-28T09:31:31.782Z,4225.9
2022-08-28T09:37:06.938Z,4219.5
2022-08-28T09:42:41.830Z,4221.3
2022-08-28T09:48:17.096Z,4223.5
2022-08-28T09:53:52.277Z,4231.4
2022-08-28T09:59:26.926Z,4226.5
2022-08-28T10:05:01.912Z,4227.4
2022-08-28T10:10:37.100Z,4217.7
2022-08-28T10:16:12.655Z,4221.8
2022-08-28T10:21:47.569Z,4219.7
2022-08-28T10:27:22.386Z,4226.5
2022-08-28T10:32:57.437Z,4218
2022-08-28T10:38:33.271Z,4222
2022-08-28T10:44:08.646Z,4220.2
2022-08-28T10:49:43.742Z,4226.5
2022-08-28T10:55:18.661Z,4212.3
2022-08-28T11:00:53.363Z,4223.3
2022-08-28T11:06:28.475Z,4218.2
2022-08-28T11:12:03.682Z,4232.1
2022-08-28T11:17:38.568Z,4222.3
2022-08-28T11:23:19.452Z,4228.2
2022-08-28T11:29:02.297Z,4222.2
2022-08-28T11:34:37.359Z,4221
2022-08-28T11:40:12.975Z,4214.5
2022-08-28T11:45:49.812Z,4227.9
2022-08-28T11:51:25.436Z,4228.4
2022-08-28T11:57:02.172Z,4226.5
2022-08-28T12:02:38.848Z,4217.5
2022-08-28T12:08:14.941Z,4225.4
2022-08-28T12:13:49.760Z,4217
2022-08-28T12:19:25.545Z,4222.3
2022-08-28T12:25:00.375Z,4226.7
2022-08-28T12:30:37.402Z,4226.5
2022-08-28T12:36:12.501Z,4222.7
2022-08-28T12:42:09.274Z,4221
2022-08-28T12:47:41.981Z,4225.9
2022-08-28T12:53:24.524Z,4214.1
2022-08-28T12:59:01.537Z,4221.2
2022-08-28T13:04:40.834Z,4217.1
2022-08-28T13:10:15.712Z,4223.2
2022-08-28T13:15:50.650Z,4231.7
2022-08-28T13:21:36.007Z,4221.2
2022-08-28T13:27:10.864Z,4219.5
2022-08-28T13:32:48.564Z,4224.5
2022-08-28T13:38:26.167Z,4223.7
2022-08-28T13:44:23.440Z,4230.2
2022-08-28T13:49:57.193Z,4227.7
2022-08-28T13:55:31.848Z,4217.5
2022-08-28T14:01:07.756Z,4223.2
2022-08-28T14:06:43.038Z,4220.8
2022-08-28T14:12:18.208Z,4222.7
2022-08-28T14:17:53.191Z,4217.3
2022-08-28T14:23:28.122Z,4224
2022-08-28T14:29:04.093Z,4225.7
2022-08-28T14:34:42.491Z,4220.8
2022-08-28T14:40:18.135Z,4218.5
2022-08-28T14:45:55.524Z,4225.2
2022-08-28T14:51:30.973Z,4228.9
2022-08-28T14:57:06.113Z,4220.7
2022-08-28T15:02:42.162Z,4224
2022-08-28T15:08:17.214Z,4229.5
2022-08-28T15:13:53.084Z,4226.4
2022-08-28T15:19:27.964Z,4217.5
2022-08-28T15:25:02.903Z,4215.3
2022-08-28T15:30:48.366Z,4211.8
2022-08-28T15:36:24.087Z,4219.3
2022-08-28T15:42:20.916Z,4213.3
2022-08-28T15:47:54.580Z,4213.5
2022-08-28T15:53:29.257Z,4210.4
2022-08-28T15:59:03.929Z,4211.5
2022-08-28T16:04:38.617Z,4215.5
2022-08-28T16:10:14.503Z,4214.1
2022-08-28T16:15:49.257Z,4213.6
2022-08-28T16:21:28.928Z,4214.1
2022-08-28T16:27:21.701Z,4213.5
2022-08-28T16:32:59.317Z,4209.8
2022-08-28T16:38:36.483Z,4209.6
2022-08-28T16:44:33.275Z,4207.9
2022-08-28T16:50:08.685Z,4211.6
2022-08-28T16:55:43.411Z,4211.8
2022-08-28T17:01:25.154Z,4211.6
2022-08-28T17:07:00.080Z,4208.9
2022-08-28T17:12:34.967Z,4208.6
2022-08-28T17:18:11.315Z,4211
2022-08-28T17:23:46.030Z,4207.4
2022-08-28T17:29:20.948Z,4208.6
2022-08-28T17:34:55.550Z,4208.3
2022-08-28T17:40:31.284Z,4206.4
2022-08-28T17:46:07.059Z,4206.9
2022-08-28T17:51:45.467Z,4207.1
2022-08-28T17:57:20.650Z,4205.9
2022-08-28T18:03:01.010Z,4205.3
2022-08-28T18:08:36.643Z,4203.7
2022-08-28T18:14:15.408Z,4203.1
2022-08-28T18:19:50.266Z,4203.1
2022-08-28T18:25:26.115Z,4203.7
2022-08-28T18:31:01.837Z,4202.1
2022-08-28T18:36:36.666Z,4202.9
2022-08-28T18:42:33.147Z,4200.1
2022-08-28T18:48:06.045Z,4201.9
2022-08-28T18:53:44.358Z,4202.2
2022-08-28T18:59:19.010Z,4200.6
2022-08-28T19:04:53.759Z,4202.4
2022-08-28T19:10:36.119Z,4202.4
2022-08-28T19:16:12.041Z,4201.1
2022-08-28T19:21:47.168Z,4200.7
2022-08-28T19:27:22.991Z,4199.4
2022-08-28T19:32:58.721Z,4199.7
2022-08-28T19:38:33.538Z,4200.6
2022-08-28T19:44:30.307Z,4198.9
2022-08-28T19:50:04.025Z,4200.9
2022-08-28T19:55:38.801Z,4201.4
2022-08-28T20:01:14.607Z,4200.4
2022-08-28T20:06:49.414Z,4199.6
2022-08-28T20:12:24.262Z,4198.7
2022-08-28T20:17:59.055Z,4197.7
2022-08-28T20:23:33.737Z,4196.9
2022-08-28T20:29:08.435Z,4199.7
2022-08-28T20:34:45.614Z,4199.1
2022-08-28T20:40:22.264Z,4198.7
2022-08-28T20:45:58.042Z,4196.9
2022-08-28T20:51:33.206Z,4198.7
2022-08-28T20:57:08.719Z,4198.6
2022-08-28T21:02:43.391Z,4197.5
2022-08-28T21:08:18.100Z,4196.5
2022-08-28T21:13:52.995Z,4197.5
2022-08-28T21:19:41.262Z,4196.5
2022-08-28T21:25:16.093Z,4196.4
2022-08-28T21:30:51.626Z,4195.7
2022-08-28T21:36:26.731Z,4195
2022-08-28T21:42:23.368Z,4190.2
2022-08-28T21:47:56.113Z,4195.5
2022-08-28T21:53:31.049Z,4193.7
2022-08-28T21:59:06.009Z,4192.7
2022-08-28T22:04:40.758Z,4191.7
2022-08-28T22:10:15.593Z,4194.4
2022-08-28T22:15:50.330Z,4192
2022-08-28T22:21:25.664Z,4192.4
2022-08-28T22:27:00.639Z,4191.4
2022-08-28T22:32:36.578Z,4192.5
2022-08-28T22:38:11.776Z,4190.9
2022-08-28T22:44:08.213Z,4189.3
2022-08-28T22:49:40.935Z,4192
2022-08-28T22:55:15.686Z,4190.8
2022-08-28T23:00:50.487Z,4187.8
2022-08-28T23:06:25.206Z,4187.5
2022-08-28T23:12:01.418Z,4190.7
2022-08-28T23:17:37.630Z,4189.2
2022-08-28T23:23:12.497Z,4188.8
2022-08-28T23:28:47.465Z,4189.8
2022-08-28T23:34:23.375Z,4189
2022-08-28T23:40:02.372Z,4188.2
2022-08-28T23:45:38.781Z,4188
2022-08-28T23:51:14.760Z,4188.3
2022-08-28T23:56:51.917Z,4184.3
